Time;durP1;ratioP1;P1;durP2;ratioP2;P2;SDS_P1;SDS_P2;PMS_P1;PMS_P2;Temp;Humidity;BMP_temperature;BMP_pressure;BME280_temperature;BME280_humidity;BME280_pressure;Samples;Min_cycle;Max_cycle;Signal;HPM_P1;HPM_P2
2022/08/09 00:01:47;;;;;;;3.10;2.80;;;21.90;52.80;;;;;;6155806;23;20205;-89
2022/08/09 00:04:14;;;;;;;3.30;2.67;;;21.90;52.80;;;;;;6156315;23;20255;-89
2022/08/09 00:06:43;;;;;;;2.97;2.67;;;21.90;52.80;;;;;;6108371;23;20151;-90
2022/08/09 00:09:10;;;;;;;2.90;2.47;;;21.90;52.80;;;;;;6131382;23;20201;-89
2022/08/09 00:11:37;;;;;;;3.38;2.90;;;21.90;52.80;;;;;;6107226;23;20148;-90
2022/08/09 00:14:04;;;;;;;3.47;2.80;;;21.90;52.80;;;;;;6108944;23;20212;-88
2022/08/09 00:16:33;;;;;;;3.28;2.55;;;21.80;52.80;;;;;;6156661;23;20132;-89
2022/08/09 00:19:01;;;;;;;3.15;2.50;;;21.80;52.80;;;;;;6132350;23;20163;-89
2022/08/09 00:21:27;;;;;;;3.00;2.70;;;21.80;52.90;;;;;;6132101;22;20164;-90
2022/08/09 00:23:54;;;;;;;3.05;2.72;;;21.80;52.90;;;;;;6108168;23;20175;-89
2022/08/09 00:26:22;;;;;;;3.10;2.70;;;21.80;52.90;;;;;;6132105;23;20127;-89
2022/08/09 00:28:48;;;;;;;3.38;2.70;;;21.80;52.90;;;;;;6131515;23;20237;-90
2022/08/09 00:31:14;;;;;;;3.30;2.60;;;21.80;52.90;;;;;;6107804;23;20166;-90
2022/08/09 00:33:42;;;;;;;3.03;2.70;;;21.90;52.90;;;;;;6107443;23;20194;-89
2022/08/09 00:36:08;;;;;;;3.63;2.80;;;21.80;52.90;;;;;;6132736;23;20201;-90
2022/08/09 00:38:34;;;;;;;2.92;2.60;;;21.80;53.00;;;;;;6132786;23;20507;-89
2022/08/09 00:40:59;;;;;;;3.50;2.97;;;21.80;53.00;;;;;;6107668;23;20151;-89
2022/08/09 00:43:29;;;;;;;2.85;2.53;;;21.80;53.00;;;;;;6107378;23;20486;-89
2022/08/09 00:45:54;;;;;;;3.38;2.70;;;21.80;53.00;;;;;;6131833;23;20127;-89
2022/08/09 00:48:24;;;;;;;2.85;2.53;;;21.80;53.00;;;;;;6155602;23;20141;-89
2022/08/09 00:50:50;;;;;;;3.65;2.80;;;21.80;53.00;;;;;;6107587;23;20277;-88
2022/08/09 00:53:18;;;;;;;2.85;2.55;;;21.80;53.00;;;;;;6106467;23;20147;-89
2022/08/09 00:55:43;;;;;;;3.20;2.70;;;21.80;53.00;;;;;;6131033;23;20147;-89
2022/08/09 00:58:09;;;;;;;3.33;2.72;;;21.80;53.00;;;;;;6107331;23;20226;-89
2022/08/09 01:00:37;;;;;;;3.20;2.63;;;21.80;53.10;;;;;;6106733;23;20191;-89
2022/08/09 01:03:16;;;;;;;3.33;2.80;;;21.80;53.10;;;;;;6107562;23;20220;-89
2022/08/09 01:06:03;;;;;;;2.80;2.50;;;21.80;53.00;;;;;;6131603;23;20151;-89
2022/08/09 01:09:05;;;;;;;3.13;2.58;;;21.80;53.10;;;;;;6132339;23;20167;-90
2022/08/09 01:11:56;;;;;;;3.50;2.70;;;21.80;53.20;;;;;;6131281;23;20617;-90
2022/08/09 01:14:29;;;;;;;3.10;2.70;;;21.80;53.20;;;;;;6135698;23;20147;-90
2022/08/09 01:17:00;;;;;;;3.47;2.90;;;21.80;53.20;;;;;;6107015;23;20209;-90
2022/08/09 01:19:34;;;;;;;2.50;2.30;;;21.80;52.50;;;;;;6107821;23;20162;-89
2022/08/09 01:22:13;;;;;;;3.63;3.03;;;21.80;53.20;;;;;;6107830;23;20154;-89
2022/08/09 01:24:59;;;;;;;3.47;2.55;;;21.80;53.20;;;;;;6108216;23;20178;-89
2022/08/09 01:27:26;;;;;;;3.17;2.72;;;21.80;53.20;;;;;;6133463;23;20153;-89
2022/08/09 01:29:58;;;;;;;3.08;2.50;;;21.70;53.80;;;;;;6107766;23;20151;-89
2022/08/09 01:32:35;;;;;;;2.92;2.63;;;21.80;53.20;;;;;;6108176;23;20147;-91
2022/08/09 01:35:05;;;;;;;3.45;2.70;;;21.80;53.20;;;;;;6132969;23;20140;-90
2022/08/09 01:37:33;;;;;;;2.70;2.50;;;21.70;53.20;;;;;;6108812;23;20178;-90
2022/08/09 01:40:00;;;;;;;3.22;2.80;;;21.80;53.20;;;;;;6133199;23;20161;-90
2022/08/09 01:42:27;;;;;;;2.92;2.60;;;21.80;53.30;;;;;;6133085;23;20140;-89
2022/08/09 01:44:54;;;;;;;3.22;2.80;;;21.80;53.20;;;;;;6157628;23;20178;-89
2022/08/09 01:47:20;;;;;;;3.10;2.80;;;21.70;53.20;;;;;;6108151;23;20144;-89
2022/08/09 01:49:46;;;;;;;3.03;2.72;;;21.80;53.20;;;;;;6133371;23;20179;-91
2022/08/09 01:52:12;;;;;;;3.60;2.78;;;21.80;53.30;;;;;;6108262;23;20170;-90
2022/08/09 01:54:47;;;;;;;3.40;2.95;;;21.70;53.20;;;;;;6132240;23;20571;-89
2022/08/09 01:57:18;;;;;;;3.17;2.88;;;21.70;53.20;;;;;;6109031;23;20155;-89
2022/08/09 01:59:46;;;;;;;3.30;2.72;;;21.70;53.20;;;;;;6156598;22;20186;-90
2022/08/09 02:02:16;;;;;;;3.10;2.65;;;21.70;53.30;;;;;;6108856;23;20155;-89
2022/08/09 02:04:45;;;;;;;3.25;2.95;;;21.70;53.30;;;;;;6108548;23;20258;-90
2022/08/09 02:07:15;;;;;;;2.75;2.45;;;21.70;53.30;;;;;;6107261;23;20143;-89
2022/08/09 02:09:44;;;;;;;3.40;2.80;;;21.70;53.30;;;;;;6132118;23;20136;-90
2022/08/09 02:12:16;;;;;;;3.88;2.90;;;21.70;53.30;;;;;;6109129;23;20173;-90
2022/08/09 02:14:45;;;;;;;3.08;2.70;;;21.70;53.30;;;;;;6110364;23;20265;-89
2022/08/09 02:17:12;;;;;;;2.63;2.40;;;21.70;53.30;;;;;;6108700;23;20144;-89
2022/08/09 02:19:38;;;;;;;2.80;2.38;;;21.70;53.30;;;;;;6132619;23;20222;-89
2022/08/09 02:22:12;;;;;;;3.53;2.72;;;21.70;53.30;;;;;;6108167;23;20148;-89
2022/08/09 02:24:40;;;;;;;3.10;2.60;;;21.70;53.40;;;;;;6108696;23;20179;-89
2022/08/09 02:27:06;;;;;;;3.22;2.88;;;21.70;53.40;;;;;;6107310;23;20148;-89
2022/08/09 02:29:38;;;;;;;3.53;2.90;;;21.70;53.40;;;;;;6108836;23;20143;-89
2022/08/09 02:32:05;;;;;;;3.50;2.83;;;21.70;53.40;;;;;;6133296;23;20140;-89
2022/08/09 02:34:33;;;;;;;2.97;2.60;;;21.70;53.40;;;;;;6108826;23;20151;-89
2022/08/09 02:37:01;;;;;;;3.00;2.70;;;21.70;53.40;;;;;;6132955;23;20170;-89
2022/08/09 02:39:34;;;;;;;3.33;2.88;;;21.70;53.40;;;;;;6108220;23;20200;-90
2022/08/09 02:42:06;;;;;;;3.20;2.70;;;21.70;53.40;;;;;;6108701;23;20527;-89
2022/08/09 02:44:37;;;;;;;2.80;2.50;;;21.70;53.50;;;;;;6158774;23;20602;-89
2022/08/09 02:47:06;;;;;;;3.28;2.65;;;21.70;53.50;;;;;;6060146;23;20155;-89
2022/08/09 02:49:34;;;;;;;2.92;2.60;;;21.60;53.40;;;;;;6108203;23;20219;-89
2022/08/09 02:52:00;;;;;;;3.38;2.92;;;21.60;53.40;;;;;;6109240;23;20197;-89
2022/08/09 02:54:26;;;;;;;2.92;2.47;;;21.70;53.50;;;;;;6132660;23;20206;-89
2022/08/09 02:56:53;;;;;;;3.72;2.90;;;21.70;53.60;;;;;;6132914;23;20219;-89
2022/08/09 02:59:20;;;;;;;3.13;2.83;;;21.60;53.50;;;;;;6108422;22;20154;-89
2022/08/09 03:01:46;;;;;;;2.63;2.30;;;21.60;53.50;;;;;;6086224;23;20507;-89
2022/08/09 03:04:12;;;;;;;3.25;2.75;;;21.60;53.40;;;;;;6108112;23;20187;-89
2022/08/09 03:06:40;;;;;;;3.05;2.53;;;21.70;53.60;;;;;;6084274;23;20155;-89
2022/08/09 03:09:07;;;;;;;3.47;2.80;;;21.60;53.50;;;;;;6108027;23;20147;-88
2022/08/09 03:11:34;;;;;;;3.40;2.85;;;21.70;53.60;;;;;;6084852;23;20148;-88
2022/08/09 03:14:02;;;;;;;2.85;2.42;;;21.60;53.60;;;;;;6085196;23;20162;-89
2022/08/09 03:16:28;;;;;;;3.80;2.70;;;21.60;53.60;;;;;;6084916;23;20151;-90
2022/08/09 03:18:55;;;;;;;3.78;2.95;;;21.60;53.60;;;;;;6109597;23;20138;-89
2022/08/09 03:21:22;;;;;;;2.97;2.60;;;21.60;53.60;;;;;;6084183;23;20488;-89
2022/08/09 03:23:48;;;;;;;4.07;2.75;;;21.60;53.60;;;;;;6084587;23;20205;-89
2022/08/09 03:26:15;;;;;;;2.47;2.28;;;21.60;53.60;;;;;;6086191;23;20139;-89
2022/08/09 03:28:42;;;;;;;2.75;2.20;;;21.60;53.70;;;;;;6086161;23;20148;-88
2022/08/09 03:31:10;;;;;;;3.10;2.50;;;21.60;53.70;;;;;;6087777;23;20169;-89
2022/08/09 03:33:37;;;;;;;2.92;2.63;;;21.60;53.60;;;;;;6112343;23;20536;-89
2022/08/09 03:36:04;;;;;;;3.67;2.80;;;21.60;54.30;;;;;;6089178;23;20204;-89
2022/08/09 03:38:29;;;;;;;2.88;2.60;;;21.60;53.70;;;;;;6089736;23;20154;-89
2022/08/09 03:40:56;;;;;;;3.00;2.70;;;21.60;53.70;;;;;;6090200;23;20239;-89
2022/08/09 03:43:23;;;;;;;3.00;2.70;;;21.60;53.70;;;;;;6090116;23;20158;-89
2022/08/09 03:45:50;;;;;;;3.50;2.85;;;21.60;53.70;;;;;;6115083;23;20180;-88
2022/08/09 03:48:16;;;;;;;2.67;2.40;;;21.60;53.70;;;;;;6115418;23;20131;-89
2022/08/09 03:50:44;;;;;;;3.33;2.83;;;21.60;53.70;;;;;;6115650;23;20136;-89
2022/08/09 03:53:12;;;;;;;3.05;2.65;;;21.60;53.70;;;;;;6091365;23;20583;-89
2022/08/09 03:55:38;;;;;;;2.97;2.63;;;21.60;53.70;;;;;;6140330;23;20154;-88
2022/08/09 03:58:04;;;;;;;3.75;2.78;;;21.60;53.70;;;;;;6116397;23;20138;-89
2022/08/09 04:00:29;;;;;;;3.35;2.70;;;21.60;53.70;;;;;;6100819;23;20194;-88
2022/08/09 04:02:56;;;;;;;3.00;2.70;;;21.60;53.70;;;;;;6115620;23;20156;-89
2022/08/09 04:05:22;;;;;;;3.20;2.67;;;21.60;53.70;;;;;;6115349;23;20194;-89
2022/08/09 04:07:50;;;;;;;2.95;2.60;;;21.60;53.70;;;;;;6115947;23;20163;-88
2022/08/09 04:10:16;;;;;;;3.20;2.70;;;21.60;53.70;;;;;;6116080;23;20150;-89
2022/08/09 04:12:48;;;;;;;2.67;2.30;;;21.60;53.70;;;;;;6164697;23;20135;-89
2022/08/09 04:15:14;;;;;;;3.20;2.67;;;21.70;53.70;;;;;;6116592;23;20140;-89
2022/08/09 04:17:40;;;;;;;3.40;2.85;;;21.60;53.60;;;;;;6115905;23;20148;-89
2022/08/09 04:20:09;;;;;;;3.30;2.65;;;21.70;53.60;;;;;;6115623;23;20148;-88
2022/08/09 04:22:36;;;;;;;2.97;2.60;;;21.70;53.60;;;;;;6115481;23;20193;-89
2022/08/09 04:25:04;;;;;;;2.65;2.35;;;21.60;53.50;;;;;;6115138;23;20633;-89
2022/08/09 04:27:32;;;;;;;3.10;2.33;;;21.70;53.50;;;;;;6140297;23;20135;-89
2022/08/09 04:29:59;;;;;;;3.13;2.53;;;21.70;53.50;;;;;;6115678;23;20171;-89
2022/08/09 04:32:26;;;;;;;2.78;2.47;;;21.70;53.50;;;;;;6115965;23;20147;-89
2022/08/09 04:34:52;;;;;;;2.85;2.35;;;21.70;53.50;;;;;;6115860;23;20193;-89
2022/08/09 04:37:18;;;;;;;3.00;2.40;;;21.70;53.50;;;;;;6116360;23;20147;-89
2022/08/09 04:39:45;;;;;;;2.88;2.58;;;21.70;53.40;;;;;;6116394;23;20205;-89
2022/08/09 04:42:13;;;;;;;2.47;1.98;;;21.70;53.40;;;;;;6140583;23;20140;-89
2022/08/09 04:44:39;;;;;;;2.63;2.35;;;21.90;53.50;;;;;;6140218;23;20175;-88
2022/08/09 04:47:07;;;;;;;3.53;2.90;;;21.90;53.40;;;;;;6116496;23;20144;-89
2022/08/09 04:49:37;;;;;;;2.70;2.40;;;21.80;53.30;;;;;;6116250;23;20537;-89
2022/08/09 04:52:05;;;;;;;3.03;2.50;;;21.80;53.40;;;;;;6140063;23;20153;-89
2022/08/09 04:54:31;;;;;;;3.00;2.53;;;21.90;53.50;;;;;;6164446;23;20153;-89
2022/08/09 04:56:58;;;;;;;2.83;2.53;;;21.90;53.50;;;;;;6116016;23;20144;-88
2022/08/09 04:59:24;;;;;;;3.17;2.60;;;21.80;53.40;;;;;;6139208;22;20144;-89
2022/08/09 05:01:49;;;;;;;3.00;2.50;;;21.80;53.60;;;;;;6091790;23;20170;-88
2022/08/09 05:04:15;;;;;;;3.85;2.80;;;21.90;54.00;;;;;;6092656;23;20183;-88
2022/08/09 05:06:42;;;;;;;2.67;2.42;;;21.90;54.30;;;;;;6115495;23;20639;-88
2022/08/09 05:09:11;;;;;;;2.88;2.58;;;22.00;54.00;;;;;;6115595;23;20147;-88
2022/08/09 05:11:37;;;;;;;3.10;2.58;;;22.00;53.90;;;;;;6092395;23;20147;-88
2022/08/09 05:14:05;;;;;;;2.60;2.40;;;21.90;54.00;;;;;;6092206;23;20159;-88
2022/08/09 05:16:32;;;;;;;2.75;2.45;;;21.90;54.20;;;;;;6116506;23;20155;-89
2022/08/09 05:19:00;;;;;;;2.47;2.20;;;21.90;53.90;;;;;;6092211;23;20152;-89
2022/08/09 05:21:26;;;;;;;3.08;2.67;;;22.00;54.40;;;;;;6116126;23;20201;-89
2022/08/09 05:23:52;;;;;;;2.53;2.33;;;22.00;54.50;;;;;;6115531;23;20193;-89
2022/08/09 05:26:18;;;;;;;3.38;2.85;;;21.90;54.40;;;;;;6092183;23;20155;-89
2022/08/09 05:28:45;;;;;;;2.75;2.42;;;22.00;54.40;;;;;;6091804;23;20149;-89
2022/08/09 05:31:12;;;;;;;3.40;2.70;;;21.90;54.60;;;;;;6091269;23;20186;-89
2022/08/09 05:33:37;;;;;;;2.30;2.10;;;21.90;54.30;;;;;;6091572;23;20176;-89
2022/08/09 05:36:04;;;;;;;2.63;2.33;;;22.00;54.70;;;;;;6092586;23;20148;-89
2022/08/09 05:38:35;;;;;;;3.10;2.58;;;22.10;54.50;;;;;;6115431;23;20147;-89
2022/08/09 05:41:03;;;;;;;2.53;2.33;;;22.00;54.60;;;;;;6092240;23;20575;-89
2022/08/09 05:43:34;;;;;;;2.65;2.30;;;22.10;54.70;;;;;;6027287;23;20192;-88
2022/08/09 05:46:01;;;;;;;2.50;2.22;;;22.10;54.60;;;;;;6052064;23;20157;-90
2022/08/09 05:48:27;;;;;;;2.50;2.30;;;22.10;54.70;;;;;;6028148;23;20620;-89
2022/08/09 05:50:54;;;;;;;2.92;2.40;;;22.20;54.70;;;;;;6050991;23;20221;-89
2022/08/09 05:53:19;;;;;;;2.70;2.38;;;22.20;54.70;;;;;;6027172;23;20146;-89
2022/08/09 05:55:46;;;;;;;2.40;2.08;;;22.20;54.90;;;;;;6028013;23;20161;-89
2022/08/09 05:58:13;;;;;;;2.63;2.30;;;22.20;55.00;;;;;;6027589;23;20153;-89
2022/08/09 06:00:40;;;;;;;3.17;2.50;;;22.20;55.00;;;;;;6113787;23;20198;-89
2022/08/09 06:03:05;;;;;;;2.90;2.40;;;22.20;54.80;;;;;;6176690;23;20150;-88
2022/08/09 06:05:32;;;;;;;2.58;2.25;;;22.20;55.20;;;;;;6176788;23;20188;-89
2022/08/09 06:08:24;;;;;;;3.13;2.63;;;22.30;55.10;;;;;;6176769;23;20580;-89
2022/08/09 06:10:54;;;;;;;2.42;2.22;;;22.30;55.30;;;;;;6167721;23;20149;-89
2022/08/09 06:13:29;;;;;;;3.03;2.42;;;22.30;55.30;;;;;;6178494;23;20149;-89
2022/08/09 06:16:04;;;;;;;2.90;2.25;;;22.30;55.20;;;;;;6203495;23;20141;-90
2022/08/09 06:18:30;;;;;;;2.80;2.50;;;22.30;55.30;;;;;;6178172;23;20151;-89
2022/08/09 06:20:58;;;;;;;2.40;2.20;;;22.40;55.20;;;;;;6178626;23;20141;-89
2022/08/09 06:23:25;;;;;;;2.35;2.15;;;22.30;55.30;;;;;;6076725;23;20146;-89
2022/08/09 06:25:53;;;;;;;3.08;2.47;;;22.40;55.30;;;;;;6176808;23;20208;-89
2022/08/09 06:28:30;;;;;;;2.60;2.20;;;22.40;55.50;;;;;;6201200;23;20139;-90
2022/08/09 06:30:56;;;;;;;2.53;2.22;;;22.40;55.60;;;;;;6202138;23;20607;-89
2022/08/09 06:33:32;;;;;;;3.30;2.65;;;22.40;55.70;;;;;;6175154;23;20155;-90
2022/08/09 06:36:08;;;;;;;;;;;;;;;;;;;;;
2022/08/09 06:38:34;;;;;;;2.60;2.38;;;22.40;55.70;;;;;;6096564;23;20183;-89
2022/08/09 06:41:08;;;;;;;2.58;2.38;;;22.30;55.70;;;;;;6087014;23;20151;-87
2022/08/09 06:43:37;;;;;;;2.58;2.35;;;22.30;55.80;;;;;;6088971;23;20223;-87
2022/08/09 07:00:01;;;;;;;;;;;;;;;;;;;;;
2022/08/09 07:02:28;;;;;;;2.53;2.28;;;22.40;56.10;;;;;;6054138;23;20188;-87
2022/08/09 07:04:55;;;;;;;2.83;2.50;;;22.50;56.30;;;;;;6055712;23;20504;-88
2022/08/09 07:07:22;;;;;;;2.65;2.45;;;22.40;56.10;;;;;;6072469;23;20154;-87
2022/08/09 07:09:52;;;;;;;3.83;2.30;;;22.50;56.30;;;;;;6051723;23;20159;-90
2022/08/09 07:12:39;;;;;;;3.30;2.50;;;22.60;56.20;;;;;;6076860;23;20152;-88
2022/08/09 07:15:07;;;;;;;5.97;2.40;;;22.60;56.10;;;;;;6049569;23;20157;-88
2022/08/09 07:17:42;;;;;;;2.88;2.55;;;22.60;56.40;;;;;;6093139;23;20228;-89
2022/08/09 07:20:15;;;;;;;3.50;2.45;;;22.60;56.20;;;;;;6014420;23;20250;-88
2022/08/09 07:22:42;;;;;;;2.53;2.20;;;22.60;56.40;;;;;;5954103;23;20167;-87
2022/08/09 07:25:09;;;;;;;3.28;2.60;;;22.50;56.10;;;;;;5953811;23;20189;-88
2022/08/09 07:27:34;;;;;;;3.25;2.55;;;22.60;56.40;;;;;;5990483;23;20155;-87
2022/08/09 07:30:05;;;;;;;2.42;2.22;;;22.60;56.50;;;;;;5989612;23;20155;-87
2022/08/09 07:32:46;;;;;;;4.07;2.42;;;22.50;56.20;;;;;;5994238;23;20206;-88
2022/08/09 07:35:15;;;;;;;2.75;2.42;;;22.60;56.60;;;;;;6048205;23;20160;-87
2022/08/09 07:37:49;;;;;;;2.67;2.20;;;22.70;56.50;;;;;;5971613;23;20157;-88
2022/08/09 07:40:16;;;;;;;2.60;2.20;;;22.80;56.10;;;;;;6083371;23;20186;-88
2022/08/09 07:42:55;;;;;;;2.35;2.05;;;22.90;55.90;;;;;;6082510;23;20235;-88
2022/08/09 07:45:26;;;;;;;2.58;2.17;;;22.80;56.10;;;;;;6079416;23;20187;-89
2022/08/09 07:47:52;;;;;;;2.58;2.38;;;22.80;56.30;;;;;;6068686;23;20161;-88
2022/08/09 07:50:26;;;;;;;2.30;2.10;;;22.80;56.30;;;;;;6070030;23;20181;-89
2022/08/09 07:52:56;;;;;;;2.47;2.28;;;22.80;56.40;;;;;;6050019;23;20150;-88
2022/08/09 07:55:24;;;;;;;6.32;2.40;;;22.70;56.50;;;;;;6021258;23;20158;-88
2022/08/09 07:57:54;;;;;;;4.65;2.50;;;22.70;56.50;;;;;;6049291;23;20222;-87
2022/08/09 08:00:20;;;;;;;6.97;2.50;;;22.70;56.50;;;;;;5994872;23;20218;-88
2022/08/09 08:02:47;;;;;;;4.22;2.40;;;22.70;56.50;;;;;;6020069;23;20615;-88
2022/08/09 08:05:13;;;;;;;6.07;2.80;;;22.70;56.70;;;;;;6029167;23;20208;-87
2022/08/09 08:07:39;;;;;;;12.35;2.97;;;22.70;56.80;;;;;;6076236;23;20484;-87
2022/08/09 08:10:06;;;;;;;10.52;2.80;;;22.70;56.70;;;;;;6079123;23;20156;-87
2022/08/09 08:12:33;;;;;;;16.38;3.40;;;22.80;56.60;;;;;;6079770;23;20172;-87
2022/08/09 08:14:59;;;;;;;20.83;3.00;;;22.80;56.50;;;;;;6077915;23;20154;-88
2022/08/09 08:17:27;;;;;;;24.77;3.85;;;22.80;56.40;;;;;;6076968;23;20177;-87
2022/08/09 08:19:54;;;;;;;29.73;3.83;;;22.80;56.50;;;;;;6085649;23;20160;-87
2022/08/09 08:22:20;;;;;;;25.35;3.92;;;22.90;56.40;;;;;;6131585;23;20152;-87
2022/08/09 08:24:46;;;;;;;22.00;3.40;;;22.90;56.40;;;;;;6108531;23;20187;-87
2022/08/09 08:27:16;;;;;;;23.95;3.72;;;22.90;56.30;;;;;;6108190;23;20738;-87
2022/08/09 08:29:47;;;;;;;29.40;3.97;;;22.90;56.40;;;;;;6083444;23;20713;-87
2022/08/09 08:32:14;;;;;;;24.08;4.40;;;22.90;56.40;;;;;;6186663;23;20150;-87
2022/08/09 08:34:40;;;;;;;36.25;4.13;;;22.90;56.40;;;;;;6173373;23;20573;-89
2022/08/09 08:37:06;;;;;;;23.27;4.25;;;22.90;56.30;;;;;;6198249;23;20173;-87
2022/08/09 08:39:38;;;;;;;31.80;4.60;;;22.90;56.40;;;;;;6159031;23;20232;-89
2022/08/09 08:42:26;;;;;;;46.42;5.18;;;22.90;56.50;;;;;;6101943;23;20160;-88
2022/08/09 08:45:00;;;;;;;39.35;5.00;;;22.90;56.50;;;;;;6079927;23;20164;-88
2022/08/09 08:47:36;;;;;;;41.40;5.32;;;22.90;56.60;;;;;;6079357;23;20143;-88
2022/08/09 08:50:03;;;;;;;47.08;6.18;;;22.90;56.70;;;;;;6079529;23;20220;-89
2022/08/09 08:52:29;;;;;;;52.35;5.30;;;23.00;56.70;;;;;;6193137;23;20203;-88
2022/08/09 08:55:24;;;;;;;;;;;;;;;;;;;;;
2022/08/09 09:01:26;;;;;;;31.08;4.43;;;23.00;56.30;;;;;;5963196;24;20258;-89
2022/08/09 09:03:56;;;;;;;23.05;3.75;;;23.00;56.10;;;;;;5959113;24;20202;-88
2022/08/09 09:07:02;;;;;;;27.25;4.07;;;23.00;56.20;;;;;;5906212;24;20231;-89
2022/08/09 09:09:38;;;;;;;34.20;3.45;;;23.00;56.20;;;;;;5878165;24;20165;-88
2022/08/09 09:12:50;;;;;;;13.55;3.67;;;23.00;56.20;;;;;;5847495;24;20158;-90
2022/08/09 09:16:02;;;;;;;21.65;3.47;;;23.00;56.20;;;;;;5826878;24;20170;-90
2022/08/09 09:18:32;;;;;;;12.98;3.83;;;23.10;56.10;;;;;;5824226;24;20663;-88
2022/08/09 09:21:08;;;;;;;23.35;3.72;;;23.10;56.00;;;;;;5798469;24;20178;-89
2022/08/09 09:23:43;;;;;;;19.67;3.58;;;23.00;55.80;;;;;;5826673;24;20167;-91
2022/08/09 09:26:12;;;;;;;14.48;3.28;;;23.10;55.80;;;;;;5824432;24;20628;-89
2022/08/09 09:28:53;;;;;;;;;;;;;;;;;;;;;
2022/08/09 09:31:23;;;;;;;15.98;2.80;;;23.10;55.80;;;;;;5823925;24;20194;-89
2022/08/09 09:33:52;;;;;;;20.17;3.60;;;23.10;55.90;;;;;;5796834;24;20172;-89
2022/08/09 09:36:23;;;;;;;15.65;3.60;;;23.20;55.80;;;;;;5827367;24;20164;-87
2022/08/09 09:38:55;;;;;;;15.63;3.40;;;23.20;55.20;;;;;;5851843;24;20175;-88
2022/08/09 09:41:29;;;;;;;16.23;3.08;;;23.10;55.80;;;;;;5875846;24;20159;-88
2022/08/09 09:44:00;;;;;;;15.05;3.25;;;23.10;55.90;;;;;;5877525;24;20187;-87
2022/08/09 09:46:39;;;;;;;14.57;3.42;;;23.20;55.90;;;;;;5880294;24;20163;-90
2022/08/09 09:50:00;;;;;;;19.73;3.55;;;23.20;55.80;;;;;;5849327;24;20163;-88
2022/08/09 09:52:49;;;;;;;15.43;3.38;;;23.20;55.80;;;;;;5920703;24;20189;-88
2022/08/09 09:55:30;;;;;;;11.80;2.97;;;23.10;55.80;;;;;;5989551;24;20240;-89
2022/08/09 09:58:11;;;;;;;12.98;3.00;;;23.10;55.80;;;;;;5901344;24;20197;-87
2022/08/09 10:00:44;;;;;;;12.13;2.80;;;23.10;55.70;;;;;;6075278;23;20201;-88
2022/08/09 10:04:05;;;;;;;15.73;3.20;;;23.20;55.80;;;;;;6078050;23;20157;-89
2022/08/09 10:16:42;;;;;;;13.85;3.35;;;23.10;55.90;;;;;;5998284;24;20165;-89
2022/08/09 10:19:37;;;;;;;9.75;3.47;;;23.20;55.90;;;;;;5935769;24;20160;-88
2022/08/09 10:22:06;;;;;;;14.50;3.13;;;23.10;55.80;;;;;;5887193;24;20165;-88
2022/08/09 10:24:50;;;;;;;17.02;3.38;;;23.20;55.70;;;;;;5887410;24;20201;-89
2022/08/09 10:27:19;;;;;;;18.10;3.20;;;23.20;55.60;;;;;;5798210;24;20191;-89
2022/08/09 10:30:03;;;;;;;17.58;3.13;;;23.20;55.60;;;;;;5876935;24;20163;-90
2022/08/09 10:32:47;;;;;;;12.38;2.85;;;23.30;55.40;;;;;;5809386;24;20198;-90
2022/08/09 10:35:17;;;;;;;10.63;3.13;;;23.30;55.40;;;;;;5815429;24;20203;-88
2022/08/09 10:38:01;;;;;;;8.15;2.65;;;23.30;55.20;;;;;;5770558;24;20651;-90
2022/08/09 10:40:57;;;;;;;11.65;2.92;;;23.40;55.00;;;;;;5823779;24;20640;-89
2022/08/09 10:43:46;;;;;;;11.50;3.30;;;23.40;54.90;;;;;;5791552;24;20239;-88
2022/08/09 10:50:23;;;;;;;;;;;;;;;;;;;;;
2022/08/09 10:56:34;;;;;;;10.13;3.13;;;23.40;54.50;;;;;;5936119;24;20212;-88
2022/08/09 10:59:36;;;;;;;12.40;2.85;;;23.40;54.10;;;;;;5910171;24;20153;-89
2022/08/09 11:02:16;;;;;;;10.88;3.28;;;23.30;54.30;;;;;;5933228;24;20200;-89
2022/08/09 11:05:18;;;;;;;12.75;2.60;;;23.40;53.80;;;;;;5886650;24;20192;-87
2022/08/09 11:07:50;;;;;;;6.90;2.67;;;23.40;53.90;;;;;;5887388;24;20169;-89
2022/08/09 11:11:03;;;;;;;8.70;2.78;;;23.40;53.70;;;;;;5908700;24;20206;-88
2022/08/09 11:13:30;;;;;;;8.82;2.70;;;23.40;53.20;;;;;;5921464;24;20553;-90
2022/08/09 11:16:35;;;;;;;8.18;2.45;;;23.40;53.80;;;;;;5910353;24;20574;-88
2022/08/09 11:19:04;;;;;;;10.07;2.63;;;23.40;53.70;;;;;;5930011;24;20164;-88
2022/08/09 11:21:54;;;;;;;11.27;2.78;;;23.40;53.30;;;;;;5931978;24;20153;-88
2022/08/09 11:24:22;;;;;;;6.93;2.70;;;23.50;53.00;;;;;;5961483;24;20258;-90
2022/08/09 11:26:52;;;;;;;9.98;2.88;;;23.50;53.60;;;;;;5980557;23;20184;-90
2022/08/09 11:29:56;;;;;;;11.88;2.63;;;23.40;53.70;;;;;;6087658;23;20248;-88
2022/08/09 11:32:56;;;;;;;6.03;2.53;;;23.40;53.60;;;;;;6134172;23;20164;-89
2022/08/09 11:35:31;;;;;;;6.50;2.58;;;23.50;53.40;;;;;;6135752;23;20152;-89
2022/08/09 11:38:16;;;;;;;10.30;2.60;;;23.50;53.30;;;;;;6108477;23;20259;-87
2022/08/09 11:41:04;;;;;;;12.43;2.85;;;23.50;53.20;;;;;;6076428;23;20232;-90
2022/08/09 11:43:29;;;;;;;11.35;2.33;;;23.50;53.20;;;;;;6144775;23;20238;-89
2022/08/09 11:46:03;;;;;;;6.18;2.75;;;23.50;53.00;;;;;;6158876;23;20154;-89
2022/08/09 11:48:31;;;;;;;8.88;2.53;;;23.50;52.80;;;;;;6098852;23;20477;-89
2022/08/09 11:51:09;;;;;;;5.55;2.22;;;23.60;52.70;;;;;;6099975;23;20153;-89
2022/08/09 11:53:37;;;;;;;10.80;2.80;;;23.50;52.90;;;;;;6096612;23;20163;-89
2022/08/09 11:56:28;;;;;;;8.98;2.67;;;23.60;53.00;;;;;;6144828;23;20607;-89
2022/08/09 11:59:59;;;;;;;;;;;;;;;;;;;;;
2022/08/09 12:13:00;;;;;;;7.28;2.40;;;23.40;53.00;;;;;;6173595;23;20138;-90
2022/08/09 12:16:12;;;;;;;3.63;2.08;;;23.50;52.90;;;;;;5976367;23;20160;-90
2022/08/09 12:19:57;;;;;;;6.45;2.30;;;23.50;52.60;;;;;;5933551;23;20183;-90
2022/08/09 12:23:36;;;;;;;9.48;2.53;;;23.50;52.40;;;;;;5895691;24;20213;-89
2022/08/09 12:27:00;;;;;;;;;;;;;;;;;;;;;
2022/08/09 12:30:27;;;;;;;;;;;;;;;;;;;;;
2022/08/09 12:33:41;;;;;;;6.25;2.30;;;23.40;52.60;;;;;;5903214;24;20172;-90
2022/08/09 12:36:27;;;;;;;;;;;;;;;;;;;;;
2022/08/09 12:47:01;;;;;;;;;;;;;;;;;;;;;
2022/08/09 13:20:39;;;;;;;7.10;2.08;;;23.60;51.70;;;;;;5142134;27;20592;-87
2022/08/09 13:23:08;;;;;;;4.55;2.15;;;23.60;51.50;;;;;;5141646;28;20156;-88
2022/08/09 13:25:45;;;;;;;4.13;2.28;;;23.70;51.40;;;;;;5123716;28;20175;-88
2022/08/09 13:28:15;;;;;;;4.50;2.50;;;23.70;51.20;;;;;;5124411;28;20270;-88
2022/08/09 13:30:46;;;;;;;3.58;1.80;;;23.70;51.10;;;;;;5107524;28;20186;-88
2022/08/09 13:33:24;;;;;;;3.78;2.28;;;23.70;51.10;;;;;;5107593;28;20160;-89
2022/08/09 13:35:52;;;;;;;4.63;2.42;;;23.70;50.90;;;;;;5123443;28;20209;-87
2022/08/09 13:38:18;;;;;;;5.88;2.50;;;23.60;50.80;;;;;;5104529;28;20160;-88
2022/08/09 13:40:54;;;;;;;3.80;2.15;;;23.60;50.90;;;;;;5138773;28;20195;-87
2022/08/09 13:43:20;;;;;;;4.07;2.22;;;23.70;50.90;;;;;;5124318;28;20155;-88
2022/08/09 13:45:48;;;;;;;3.70;1.80;;;23.70;50.80;;;;;;5121506;28;20175;-87
2022/08/09 13:48:20;;;;;;;4.15;2.00;;;23.60;50.60;;;;;;5115963;28;20191;-89
2022/08/09 13:50:47;;;;;;;3.85;2.20;;;23.60;50.60;;;;;;5084000;28;20183;-87
2022/08/09 13:53:12;;;;;;;4.93;2.20;;;23.60;50.50;;;;;;5119566;28;20191;-88
2022/08/09 13:55:42;;;;;;;2.17;1.98;;;23.70;50.50;;;;;;5083548;28;20172;-89
2022/08/09 13:58:19;;;;;;;4.07;2.33;;;23.70;50.50;;;;;;5099046;28;20259;-89
2022/08/09 14:00:53;;;;;;;2.00;1.80;;;23.70;50.40;;;;;;5101280;28;20191;-88
2022/08/09 14:03:20;;;;;;;3.65;2.13;;;23.70;50.40;;;;;;5068241;28;20203;-88
2022/08/09 14:05:49;;;;;;;3.92;1.83;;;23.70;50.30;;;;;;5085338;28;20219;-88
2022/08/09 14:08:15;;;;;;;3.30;1.92;;;23.60;50.30;;;;;;5080688;28;20267;-88
2022/08/09 14:10:47;;;;;;;3.10;2.00;;;23.70;50.20;;;;;;5068696;28;20183;-88
2022/08/09 14:13:14;;;;;;;2.28;1.80;;;23.70;50.10;;;;;;5086239;28;20176;-88
2022/08/09 14:15:41;;;;;;;3.42;2.00;;;23.70;50.20;;;;;;5086959;28;20186;-89
2022/08/09 14:18:10;;;;;;;3.08;2.05;;;23.60;50.20;;;;;;5106207;27;20182;-89
2022/08/09 14:20:39;;;;;;;3.83;2.05;;;23.60;50.20;;;;;;5141513;27;20222;-88
2022/08/09 14:23:09;;;;;;;2.67;2.15;;;23.60;50.10;;;;;;5144085;27;20210;-88
2022/08/09 14:25:34;;;;;;;3.53;2.10;;;23.70;50.10;;;;;;5143827;27;20703;-88
2022/08/09 14:28:03;;;;;;;4.57;2.20;;;23.60;50.10;;;;;;5127773;27;20162;-88
2022/08/09 14:30:36;;;;;;;3.75;2.00;;;23.60;50.10;;;;;;5095581;28;20185;-88
2022/08/09 14:33:07;;;;;;;4.82;2.08;;;23.60;50.10;;;;;;5072759;28;20187;-88
2022/08/09 14:35:35;;;;;;;3.25;1.85;;;23.70;50.10;;;;;;5072227;28;20184;-88
2022/08/09 14:38:04;;;;;;;2.28;2.08;;;23.70;49.90;;;;;;5072115;28;20650;-88
2022/08/09 14:41:01;;;;;;;3.25;2.00;;;23.70;49.90;;;;;;5069268;28;20220;-88
2022/08/09 14:43:55;;;;;;;2.00;1.63;;;23.60;50.00;;;;;;5008780;28;20216;-88
2022/08/09 14:46:35;;;;;;;2.85;2.00;;;23.60;49.70;;;;;;4928390;29;20293;-89
2022/08/09 14:49:06;;;;;;;3.30;1.80;;;23.60;49.70;;;;;;4912329;29;20194;-88
2022/08/09 14:51:32;;;;;;;3.10;2.00;;;23.70;49.60;;;;;;4911686;29;20274;-88